sensor_id;sensor_type;location;lat;lon;timestamp;temperature;humidity
2973;DHT22;1496;51.404;7.232;2023-08-01T00:00:34;16.40;99.90
2973;DHT22;1496;51.404;7.232;2023-08-01T00:02:59;16.40;99.90
2973;DHT22;1496;51.404;7.232;2023-08-01T00:05:25;16.40;99.90
2973;DHT22;1496;51.404;7.232;2023-08-01T00:07:52;16.40;99.90
2973;DHT22;1496;51.404;7.232;2023-08-01T00:10:17;16.40;99.90
2973;DHT22;1496;51.404;7.232;2023-08-01T00:12:43;16.40;99.90
2973;DHT22;1496;51.404;7.232;2023-08-01T00:15:09;16.40;99.90
2973;DHT22;1496;51.404;7.232;2023-08-01T00:17:34;16.40;99.90
2973;DHT22;1496;51.404;7.232;2023-08-01T00:20:01;16.40;99.90
2973;DHT22;1496;51.404;7.232;2023-08-01T00:22:27;16.40;99.90
2973;DHT22;1496;51.404;7.232;2023-08-01T00:24:53;16.40;99.90
2973;DHT22;1496;51.404;7.232;2023-08-01T00:27:19;16.40;99.90
2973;DHT22;1496;51.404;7.232;2023-08-01T00:29:45;16.40;99.90
2973;DHT22;1496;51.404;7.232;2023-08-01T00:32:11;16.50;99.90
2973;DHT22;1496;51.404;7.232;2023-08-01T00:34:36;16.50;99.90
2973;DHT22;1496;51.404;7.232;2023-08-01T00:37:03;16.50;99.90
2973;DHT22;1496;51.404;7.232;2023-08-01T00:39:28;16.50;99.90
2973;DHT22;1496;51.404;7.232;2023-08-01T00:41:54;16.50;99.90
2973;DHT22;1496;51.404;7.232;2023-08-01T00:44:20;16.50;99.90
2973;DHT22;1496;51.404;7.232;2023-08-01T00:46:45;16.50;99.90
2973;DHT22;1496;51.404;7.232;2023-08-01T00:49:12;16.50;99.90
2973;DHT22;1496;51.404;7.232;2023-08-01T00:51:38;16.50;99.90
2973;DHT22;1496;51.404;7.232;2023-08-01T00:54:04;16.50;99.90
2973;DHT22;1496;51.404;7.232;2023-08-01T00:56:30;16.50;99.90
2973;DHT22;1496;51.404;7.232;2023-08-01T00:58:56;16.40;99.90
2973;DHT22;1496;51.404;7.232;2023-08-01T01:01:21;16.40;99.90
2973;DHT22;1496;51.404;7.232;2023-08-01T01:03:48;16.30;99.90
2973;DHT22;1496;51.404;7.232;2023-08-01T01:06:19;16.20;99.90
2973;DHT22;1496;51.404;7.232;2023-08-01T01:08:48;16.10;99.90
2973;DHT22;1496;51.404;7.232;2023-08-01T01:11:13;16.10;99.90
2973;DHT22;1496;51.404;7.232;2023-08-01T01:13:39;16.10;99.90
2973;DHT22;1496;51.404;7.232;2023-08-01T01:16:05;16.10;99.90
2973;DHT22;1496;51.404;7.232;2023-08-01T01:18:31;16.10;99.90
2973;DHT22;1496;51.404;7.232;2023-08-01T01:20:57;16.10;99.90
2973;DHT22;1496;51.404;7.232;2023-08-01T01:23:22;16.10;99.90
2973;DHT22;1496;51.404;7.232;2023-08-01T01:25:49;16.10;99.90
2973;DHT22;1496;51.404;7.232;2023-08-01T01:28:16;16.00;99.90
2973;DHT22;1496;51.404;7.232;2023-08-01T01:30:43;16.00;99.90
2973;DHT22;1496;51.404;7.232;2023-08-01T01:33:10;16.00;99.90
2973;DHT22;1496;51.404;7.232;2023-08-01T01:35:36;16.00;99.90
2973;DHT22;1496;51.404;7.232;2023-08-01T01:38:02;16.00;99.90
2973;DHT22;1496;51.404;7.232;2023-08-01T01:40:32;16.00;99.90
2973;DHT22;1496;51.404;7.232;2023-08-01T01:42:59;16.00;99.90
2973;DHT22;1496;51.404;7.232;2023-08-01T01:45:25;16.10;99.90
2973;DHT22;1496;51.404;7.232;2023-08-01T01:47:51;16.00;99.90
2973;DHT22;1496;51.404;7.232;2023-08-01T01:50:16;16.10;99.90
2973;DHT22;1496;51.404;7.232;2023-08-01T01:52:44;16.10;99.90
2973;DHT22;1496;51.404;7.232;2023-08-01T01:55:09;16.10;99.90
2973;DHT22;1496;51.404;7.232;2023-08-01T01:57:36;16.10;99.90
2973;DHT22;1496;51.404;7.232;2023-08-01T02:00:05;16.10;99.90
2973;DHT22;1496;51.404;7.232;2023-08-01T02:02:38;16.10;99.90
2973;DHT22;1496;51.404;7.232;2023-08-01T02:05:04;16.00;99.90
2973;DHT22;1496;51.404;7.232;2023-08-01T02:07:30;16.00;99.90
2973;DHT22;1496;51.404;7.232;2023-08-01T02:09:56;16.10;99.90
2973;DHT22;1496;51.404;7.232;2023-08-01T02:12:22;16.10;99.90
2973;DHT22;1496;51.404;7.232;2023-08-01T02:14:47;16.10;99.90
2973;DHT22;1496;51.404;7.232;2023-08-01T02:17:13;16.10;99.90
2973;DHT22;1496;51.404;7.232;2023-08-01T02:19:39;16.00;99.90
2973;DHT22;1496;51.404;7.232;2023-08-01T02:22:05;16.10;99.90
2973;DHT22;1496;51.404;7.232;2023-08-01T02:24:30;16.10;99.90
2973;DHT22;1496;51.404;7.232;2023-08-01T02:26:56;16.10;99.90
2973;DHT22;1496;51.404;7.232;2023-08-01T02:29:21;16.10;99.90
2973;DHT22;1496;51.404;7.232;2023-08-01T02:31:47;16.10;99.90
2973;DHT22;1496;51.404;7.232;2023-08-01T02:34:13;16.00;99.90
2973;DHT22;1496;51.404;7.232;2023-08-01T02:36:39;15.90;99.90
2973;DHT22;1496;51.404;7.232;2023-08-01T02:39:06;15.60;99.90
2973;DHT22;1496;51.404;7.232;2023-08-01T02:41:32;15.50;99.90
2973;DHT22;1496;51.404;7.232;2023-08-01T02:43:58;15.40;99.90
2973;DHT22;1496;51.404;7.232;2023-08-01T02:46:23;15.40;99.90
2973;DHT22;1496;51.404;7.232;2023-08-01T02:48:49;15.40;99.90
2973;DHT22;1496;51.404;7.232;2023-08-01T02:51:15;15.30;99.90
2973;DHT22;1496;51.404;7.232;2023-08-01T02:53:40;15.30;99.90
2973;DHT22;1496;51.404;7.232;2023-08-01T02:56:07;15.30;99.90
2973;DHT22;1496;51.404;7.232;2023-08-01T02:58:35;15.30;99.90
2973;DHT22;1496;51.404;7.232;2023-08-01T03:01:01;15.30;99.90
2973;DHT22;1496;51.404;7.232;2023-08-01T03:03:27;15.30;99.90
2973;DHT22;1496;51.404;7.232;2023-08-01T03:05:52;15.20;99.90
2973;DHT22;1496;51.404;7.232;2023-08-01T03:08:19;15.30;99.90
2973;DHT22;1496;51.404;7.232;2023-08-01T03:10:45;15.30;99.90
2973;DHT22;1496;51.404;7.232;2023-08-01T03:13:11;15.30;99.90
2973;DHT22;1496;51.404;7.232;2023-08-01T03:15:37;15.30;99.90
2973;DHT22;1496;51.404;7.232;2023-08-01T03:18:03;15.30;99.90
2973;DHT22;1496;51.404;7.232;2023-08-01T03:20:29;15.30;99.90
2973;DHT22;1496;51.404;7.232;2023-08-01T03:22:55;15.30;99.90
2973;DHT22;1496;51.404;7.232;2023-08-01T03:25:20;15.30;99.90
2973;DHT22;1496;51.404;7.232;2023-08-01T03:27:46;15.30;99.90
2973;DHT22;1496;51.404;7.232;2023-08-01T03:30:12;15.30;99.90
2973;DHT22;1496;51.404;7.232;2023-08-01T03:32:37;15.30;99.90
2973;DHT22;1496;51.404;7.232;2023-08-01T03:35:06;15.30;99.90
2973;DHT22;1496;51.404;7.232;2023-08-01T03:37:32;15.30;99.90
2973;DHT22;1496;51.404;7.232;2023-08-01T03:39:58;15.30;99.90
2973;DHT22;1496;51.404;7.232;2023-08-01T03:42:24;15.30;99.90
2973;DHT22;1496;51.404;7.232;2023-08-01T03:44:49;15.30;99.90
2973;DHT22;1496;51.404;7.232;2023-08-01T03:47:15;15.30;99.90
2973;DHT22;1496;51.404;7.232;2023-08-01T03:49:40;15.30;99.90
2973;DHT22;1496;51.404;7.232;2023-08-01T03:52:06;15.30;99.90
2973;DHT22;1496;51.404;7.232;2023-08-01T03:54:32;15.30;99.90
2973;DHT22;1496;51.404;7.232;2023-08-01T03:56:58;15.40;99.90
2973;DHT22;1496;51.404;7.232;2023-08-01T03:59:23;15.40;99.90
2973;DHT22;1496;51.404;7.232;2023-08-01T04:01:49;15.40;99.90
2973;DHT22;1496;51.404;7.232;2023-08-01T04:04:16;15.30;99.90
2973;DHT22;1496;51.404;7.232;2023-08-01T04:06:42;15.20;99.90
2973;DHT22;1496;51.404;7.232;2023-08-01T04:09:10;15.20;99.90
2973;DHT22;1496;51.404;7.232;2023-08-01T04:11:36;15.20;99.90
2973;DHT22;1496;51.404;7.232;2023-08-01T04:14:01;15.10;99.90
2973;DHT22;1496;51.404;7.232;2023-08-01T04:16:27;15.10;99.90
2973;DHT22;1496;51.404;7.232;2023-08-01T04:18:53;15.10;99.90
2973;DHT22;1496;51.404;7.232;2023-08-01T04:21:19;15.00;99.90
2973;DHT22;1496;51.404;7.232;2023-08-01T04:23:44;15.00;99.90
2973;DHT22;1496;51.404;7.232;2023-08-01T04:26:10;15.00;99.90
2973;DHT22;1496;51.404;7.232;2023-08-01T04:28:36;15.00;99.90
2973;DHT22;1496;51.404;7.232;2023-08-01T04:31:02;15.00;99.90
2973;DHT22;1496;51.404;7.232;2023-08-01T04:33:27;15.00;99.90
2973;DHT22;1496;51.404;7.232;2023-08-01T04:35:53;15.00;99.90
2973;DHT22;1496;51.404;7.232;2023-08-01T04:38:19;15.10;99.90
2973;DHT22;1496;51.404;7.232;2023-08-01T04:40:44;15.00;99.90
2973;DHT22;1496;51.404;7.232;2023-08-01T04:43:11;15.00;99.90
2973;DHT22;1496;51.404;7.232;2023-08-01T04:45:37;15.00;99.90
2973;DHT22;1496;51.404;7.232;2023-08-01T04:48:03;15.00;99.90
2973;DHT22;1496;51.404;7.232;2023-08-01T04:50:29;15.00;99.90
2973;DHT22;1496;51.404;7.232;2023-08-01T04:52:54;15.10;99.90
2973;DHT22;1496;51.404;7.232;2023-08-01T04:55:20;15.20;99.90
2973;DHT22;1496;51.404;7.232;2023-08-01T04:57:46;15.20;99.90
2973;DHT22;1496;51.404;7.232;2023-08-01T05:00:12;15.10;99.90
2973;DHT22;1496;51.404;7.232;2023-08-01T05:02:38;15.10;99.90
2973;DHT22;1496;51.404;7.232;2023-08-01T05:05:04;15.20;99.90
2973;DHT22;1496;51.404;7.232;2023-08-01T05:07:30;15.20;99.90
2973;DHT22;1496;51.404;7.232;2023-08-01T05:09:56;15.20;99.90
2973;DHT22;1496;51.404;7.232;2023-08-01T05:12:21;15.10;99.90
2973;DHT22;1496;51.404;7.232;2023-08-01T05:14:47;15.10;99.90
2973;DHT22;1496;51.404;7.232;2023-08-01T05:17:13;15.00;99.90
2973;DHT22;1496;51.404;7.232;2023-08-01T05:19:38;15.10;99.90
2973;DHT22;1496;51.404;7.232;2023-08-01T05:22:04;15.10;99.90
2973;DHT22;1496;51.404;7.232;2023-08-01T05:24:30;15.00;99.90
2973;DHT22;1496;51.404;7.232;2023-08-01T05:26:56;15.00;99.90
2973;DHT22;1496;51.404;7.232;2023-08-01T05:29:21;15.10;99.90
2973;DHT22;1496;51.404;7.232;2023-08-01T05:31:47;15.10;99.90
2973;DHT22;1496;51.404;7.232;2023-08-01T05:34:12;15.00;99.90
2973;DHT22;1496;51.404;7.232;2023-08-01T05:36:38;15.00;99.90
2973;DHT22;1496;51.404;7.232;2023-08-01T05:39:04;15.00;99.90
2973;DHT22;1496;51.404;7.232;2023-08-01T05:41:29;15.00;99.90
2973;DHT22;1496;51.404;7.232;2023-08-01T05:43:56;15.00;99.90
2973;DHT22;1496;51.404;7.232;2023-08-01T05:46:22;15.00;99.90
2973;DHT22;1496;51.404;7.232;2023-08-01T05:48:47;15.10;99.90
2973;DHT22;1496;51.404;7.232;2023-08-01T05:51:13;15.10;99.90
2973;DHT22;1496;51.404;7.232;2023-08-01T05:53:38;15.10;99.90
2973;DHT22;1496;51.404;7.232;2023-08-01T05:56:04;15.10;99.90
2973;DHT22;1496;51.404;7.232;2023-08-01T05:58:30;15.10;99.90
2973;DHT22;1496;51.404;7.232;2023-08-01T06:00:56;15.00;99.90
2973;DHT22;1496;51.404;7.232;2023-08-01T06:03:22;15.00;99.90
2973;DHT22;1496;51.404;7.232;2023-08-01T06:05:48;15.00;99.90
2973;DHT22;1496;51.404;7.232;2023-08-01T06:08:14;15.10;99.90
2973;DHT22;1496;51.404;7.232;2023-08-01T06:10:41;15.10;99.90
2973;DHT22;1496;51.404;7.232;2023-08-01T06:13:07;15.10;99.90
2973;DHT22;1496;51.404;7.232;2023-08-01T06:15:33;15.10;99.90
2973;DHT22;1496;51.404;7.232;2023-08-01T06:17:59;15.10;99.90
2973;DHT22;1496;51.404;7.232;2023-08-01T06:20:25;15.10;99.90
2973;DHT22;1496;51.404;7.232;2023-08-01T06:22:51;15.10;99.90
2973;DHT22;1496;51.404;7.232;2023-08-01T06:25:16;15.20;99.90
2973;DHT22;1496;51.404;7.232;2023-08-01T06:27:42;15.20;99.90
2973;DHT22;1496;51.404;7.232;2023-08-01T06:30:08;15.20;99.90
2973;DHT22;1496;51.404;7.232;2023-08-01T06:32:33;15.20;99.90
2973;DHT22;1496;51.404;7.232;2023-08-01T06:34:59;15.20;99.90
2973;DHT22;1496;51.404;7.232;2023-08-01T06:37:25;15.20;99.90
2973;DHT22;1496;51.404;7.232;2023-08-01T06:39:51;15.10;99.90
2973;DHT22;1496;51.404;7.232;2023-08-01T06:42:16;15.20;99.90
2973;DHT22;1496;51.404;7.232;2023-08-01T06:44:42;15.30;99.90
2973;DHT22;1496;51.404;7.232;2023-08-01T06:47:08;15.40;99.90
2973;DHT22;1496;51.404;7.232;2023-08-01T06:49:33;15.30;99.90
2973;DHT22;1496;51.404;7.232;2023-08-01T06:51:59;15.30;99.90
2973;DHT22;1496;51.404;7.232;2023-08-01T06:54:25;15.20;99.90
2973;DHT22;1496;51.404;7.232;2023-08-01T06:56:50;15.30;99.90
2973;DHT22;1496;51.404;7.232;2023-08-01T06:59:16;15.30;99.90
2973;DHT22;1496;51.404;7.232;2023-08-01T07:01:43;15.40;99.90
2973;DHT22;1496;51.404;7.232;2023-08-01T07:04:11;15.50;99.90
2973;DHT22;1496;51.404;7.232;2023-08-01T07:06:36;15.50;99.90
2973;DHT22;1496;51.404;7.232;2023-08-01T07:09:02;15.50;99.90
2973;DHT22;1496;51.404;7.232;2023-08-01T07:11:27;15.60;99.90
2973;DHT22;1496;51.404;7.232;2023-08-01T07:13:53;15.50;99.90
2973;DHT22;1496;51.404;7.232;2023-08-01T07:16:19;15.40;99.90
2973;DHT22;1496;51.404;7.232;2023-08-01T07:18:44;15.40;99.90
2973;DHT22;1496;51.404;7.232;2023-08-01T07:21:10;15.40;99.90
2973;DHT22;1496;51.404;7.232;2023-08-01T07:23:36;15.50;99.90
2973;DHT22;1496;51.404;7.232;2023-08-01T07:26:02;15.60;99.90
2973;DHT22;1496;51.404;7.232;2023-08-01T07:28:28;15.60;99.90
2973;DHT22;1496;51.404;7.232;2023-08-01T07:31:01;15.70;99.90
2973;DHT22;1496;51.404;7.232;2023-08-01T07:33:27;15.60;99.90
2973;DHT22;1496;51.404;7.232;2023-08-01T07:35:53;15.60;99.90
2973;DHT22;1496;51.404;7.232;2023-08-01T07:38:19;15.60;99.90
2973;DHT22;1496;51.404;7.232;2023-08-01T07:40:44;15.50;99.90
2973;DHT22;1496;51.404;7.232;2023-08-01T07:43:10;15.60;99.90
2973;DHT22;1496;51.404;7.232;2023-08-01T07:45:36;15.70;99.90
2973;DHT22;1496;51.404;7.232;2023-08-01T07:48:02;15.90;99.90
2973;DHT22;1496;51.404;7.232;2023-08-01T07:50:29;15.90;99.90
2973;DHT22;1496;51.404;7.232;2023-08-01T07:52:54;15.90;99.90
2973;DHT22;1496;51.404;7.232;2023-08-01T07:55:20;16.00;99.90
2973;DHT22;1496;51.404;7.232;2023-08-01T07:57:47;15.90;99.90
2973;DHT22;1496;51.404;7.232;2023-08-01T08:00:13;15.90;99.90
2973;DHT22;1496;51.404;7.232;2023-08-01T08:02:40;15.80;99.90
2973;DHT22;1496;51.404;7.232;2023-08-01T08:05:06;15.70;99.90
2973;DHT22;1496;51.404;7.232;2023-08-01T08:07:32;15.70;99.90
2973;DHT22;1496;51.404;7.232;2023-08-01T08:09:58;15.60;99.90
2973;DHT22;1496;51.404;7.232;2023-08-01T08:12:23;15.50;99.90
2973;DHT22;1496;51.404;7.232;2023-08-01T08:14:49;15.50;99.90
2973;DHT22;1496;51.404;7.232;2023-08-01T08:17:15;15.50;99.90
2973;DHT22;1496;51.404;7.232;2023-08-01T08:19:41;15.60;99.90
2973;DHT22;1496;51.404;7.232;2023-08-01T08:22:06;15.80;99.90
2973;DHT22;1496;51.404;7.232;2023-08-01T08:24:32;15.90;99.90
2973;DHT22;1496;51.404;7.232;2023-08-01T08:26:58;15.90;99.90
2973;DHT22;1496;51.404;7.232;2023-08-01T08:29:24;16.00;99.90
2973;DHT22;1496;51.404;7.232;2023-08-01T08:31:50;16.10;99.90
2973;DHT22;1496;51.404;7.232;2023-08-01T08:34:15;16.50;99.90
2973;DHT22;1496;51.404;7.232;2023-08-01T08:36:41;16.40;99.90
2973;DHT22;1496;51.404;7.232;2023-08-01T08:39:07;16.40;99.90
2973;DHT22;1496;51.404;7.232;2023-08-01T08:41:46;16.40;99.90
2973;DHT22;1496;51.404;7.232;2023-08-01T08:44:15;16.40;99.90
2973;DHT22;1496;51.404;7.232;2023-08-01T08:46:42;16.40;99.90
2973;DHT22;1496;51.404;7.232;2023-08-01T08:49:09;16.40;99.90
2973;DHT22;1496;51.404;7.232;2023-08-01T08:51:36;16.50;99.90
2973;DHT22;1496;51.404;7.232;2023-08-01T08:54:03;16.60;99.90
2973;DHT22;1496;51.404;7.232;2023-08-01T08:56:30;16.60;99.90
2973;DHT22;1496;51.404;7.232;2023-08-01T08:58:56;16.50;99.90
2973;DHT22;1496;51.404;7.232;2023-08-01T09:01:22;16.40;99.90
2973;DHT22;1496;51.404;7.232;2023-08-01T09:03:48;16.20;99.90
2973;DHT22;1496;51.404;7.232;2023-08-01T09:06:15;16.20;99.90
2973;DHT22;1496;51.404;7.232;2023-08-01T09:08:51;16.20;99.90
2973;DHT22;1496;51.404;7.232;2023-08-01T09:11:18;16.40;99.90
2973;DHT22;1496;51.404;7.232;2023-08-01T09:13:43;16.50;99.90
2973;DHT22;1496;51.404;7.232;2023-08-01T09:16:10;16.60;99.90
2973;DHT22;1496;51.404;7.232;2023-08-01T09:18:47;17.00;99.90
2973;DHT22;1496;51.404;7.232;2023-08-01T09:21:13;17.30;99.90
2973;DHT22;1496;51.404;7.232;2023-08-01T09:23:38;17.30;99.90
2973;DHT22;1496;51.404;7.232;2023-08-01T09:26:17;17.60;99.90
2973;DHT22;1496;51.404;7.232;2023-08-01T09:28:43;17.70;99.90
2973;DHT22;1496;51.404;7.232;2023-08-01T09:31:10;17.90;99.90
2973;DHT22;1496;51.404;7.232;2023-08-01T09:33:40;18.00;99.90
2973;DHT22;1496;51.404;7.232;2023-08-01T09:36:07;17.90;99.90
2973;DHT22;1496;51.404;7.232;2023-08-01T09:38:37;17.70;55.60
2973;DHT22;1496;51.404;7.232;2023-08-01T09:41:04;17.70;99.90
2973;DHT22;1496;51.404;7.232;2023-08-01T09:43:36;17.90;99.90
2973;DHT22;1496;51.404;7.232;2023-08-01T09:46:02;17.90;50.60
2973;DHT22;1496;51.404;7.232;2023-08-01T09:48:29;18.10;81.10
2973;DHT22;1496;51.404;7.232;2023-08-01T09:53:30;18.40;1.00
2973;DHT22;1496;51.404;7.232;2023-08-01T09:55:57;18.40;1.00
2973;DHT22;1496;51.404;7.232;2023-08-01T09:58:25;18.40;1.00
2973;DHT22;1496;51.404;7.232;2023-08-01T10:00:56;18.50;1.00
2973;DHT22;1496;51.404;7.232;2023-08-01T10:03:23;18.70;99.90
2973;DHT22;1496;51.404;7.232;2023-08-01T10:05:49;18.50;1.00
2973;DHT22;1496;51.404;7.232;2023-08-01T10:08:19;18.50;1.00
2973;DHT22;1496;51.404;7.232;2023-08-01T10:10:45;18.50;99.90
2973;DHT22;1496;51.404;7.232;2023-08-01T10:13:13;18.30;1.00
2973;DHT22;1496;51.404;7.232;2023-08-01T10:15:39;17.90;1.00
2973;DHT22;1496;51.404;7.232;2023-08-01T10:18:05;16.80;99.90
2973;DHT22;1496;51.404;7.232;2023-08-01T10:20:31;16.30;99.90
2973;DHT22;1496;51.404;7.232;2023-08-01T10:22:58;16.30;99.90
2973;DHT22;1496;51.404;7.232;2023-08-01T10:25:25;16.20;99.90
2973;DHT22;1496;51.404;7.232;2023-08-01T10:28:02;16.40;99.90
2973;DHT22;1496;51.404;7.232;2023-08-01T10:30:29;16.90;99.90
2973;DHT22;1496;51.404;7.232;2023-08-01T10:32:57;17.20;99.90
2973;DHT22;1496;51.404;7.232;2023-08-01T10:35:36;17.50;99.90
2973;DHT22;1496;51.404;7.232;2023-08-01T10:38:10;17.50;99.90
2973;DHT22;1496;51.404;7.232;2023-08-01T10:40:43;17.20;99.90
2973;DHT22;1496;51.404;7.232;2023-08-01T10:43:22;17.20;99.90
2973;DHT22;1496;51.404;7.232;2023-08-01T10:45:48;17.50;99.90
2973;DHT22;1496;51.404;7.232;2023-08-01T10:48:14;17.50;99.90
2973;DHT22;1496;51.404;7.232;2023-08-01T10:50:40;17.50;99.90
2973;DHT22;1496;51.404;7.232;2023-08-01T10:53:07;17.70;99.90
2973;DHT22;1496;51.404;7.232;2023-08-01T10:55:45;17.80;99.90
2973;DHT22;1496;51.404;7.232;2023-08-01T10:58:12;17.60;99.90
2973;DHT22;1496;51.404;7.232;2023-08-01T11:00:38;17.60;99.90
2973;DHT22;1496;51.404;7.232;2023-08-01T11:03:04;17.50;99.90
2973;DHT22;1496;51.404;7.232;2023-08-01T11:05:29;17.40;99.90
2973;DHT22;1496;51.404;7.232;2023-08-01T11:07:56;17.20;99.90
2973;DHT22;1496;51.404;7.232;2023-08-01T11:10:25;17.10;99.90
2973;DHT22;1496;51.404;7.232;2023-08-01T11:12:50;16.80;99.90
2973;DHT22;1496;51.404;7.232;2023-08-01T11:15:16;16.60;99.90
2973;DHT22;1496;51.404;7.232;2023-08-01T11:17:52;16.40;99.90
2973;DHT22;1496;51.404;7.232;2023-08-01T11:20:20;16.30;99.90
2973;DHT22;1496;51.404;7.232;2023-08-01T11:22:57;16.20;99.90
2973;DHT22;1496;51.404;7.232;2023-08-01T11:25:40;16.20;99.90
2973;DHT22;1496;51.404;7.232;2023-08-01T11:28:15;16.00;99.90
2973;DHT22;1496;51.404;7.232;2023-08-01T11:30:41;16.10;99.90
2973;DHT22;1496;51.404;7.232;2023-08-01T11:33:22;16.10;99.90
2973;DHT22;1496;51.404;7.232;2023-08-01T11:35:52;16.10;99.90
2973;DHT22;1496;51.404;7.232;2023-08-01T11:38:20;16.20;99.90
2973;DHT22;1496;51.404;7.232;2023-08-01T11:40:47;16.20;99.90
2973;DHT22;1496;51.404;7.232;2023-08-01T11:43:15;16.10;99.90
2973;DHT22;1496;51.404;7.232;2023-08-01T11:45:55;16.00;99.90
2973;DHT22;1496;51.404;7.232;2023-08-01T11:48:24;16.00;99.90
2973;DHT22;1496;51.404;7.232;2023-08-01T11:51:00;15.60;99.90
2973;DHT22;1496;51.404;7.232;2023-08-01T11:53:27;15.50;99.90
2973;DHT22;1496;51.404;7.232;2023-08-01T11:55:53;15.40;99.90
2973;DHT22;1496;51.404;7.232;2023-08-01T11:58:32;15.30;99.90
2973;DHT22;1496;51.404;7.232;2023-08-01T12:01:16;15.30;99.90
2973;DHT22;1496;51.404;7.232;2023-08-01T12:03:52;15.20;99.90
2973;DHT22;1496;51.404;7.232;2023-08-01T12:06:20;15.50;99.90
2973;DHT22;1496;51.404;7.232;2023-08-01T12:08:48;16.00;99.90
2973;DHT22;1496;51.404;7.232;2023-08-01T12:11:24;16.00;99.90
2973;DHT22;1496;51.404;7.232;2023-08-01T12:14:10;16.00;99.90
2973;DHT22;1496;51.404;7.232;2023-08-01T12:16:37;15.80;99.90
2973;DHT22;1496;51.404;7.232;2023-08-01T12:19:03;15.90;99.90
2973;DHT22;1496;51.404;7.232;2023-08-01T12:21:32;16.00;99.90
2973;DHT22;1496;51.404;7.232;2023-08-01T12:23:58;16.00;99.90
2973;DHT22;1496;51.404;7.232;2023-08-01T12:26:24;16.00;99.90
2973;DHT22;1496;51.404;7.232;2023-08-01T12:28:50;16.00;99.90
2973;DHT22;1496;51.404;7.232;2023-08-01T12:31:20;16.00;99.90
2973;DHT22;1496;51.404;7.232;2023-08-01T12:33:46;16.00;99.90
2973;DHT22;1496;51.404;7.232;2023-08-01T12:36:13;16.10;99.90
2973;DHT22;1496;51.404;7.232;2023-08-01T12:38:39;16.20;99.90
2973;DHT22;1496;51.404;7.232;2023-08-01T12:41:05;16.20;99.90
2973;DHT22;1496;51.404;7.232;2023-08-01T12:43:31;16.40;99.90
2973;DHT22;1496;51.404;7.232;2023-08-01T12:45:56;16.50;99.90
2973;DHT22;1496;51.404;7.232;2023-08-01T12:48:24;16.60;99.90
2973;DHT22;1496;51.404;7.232;2023-08-01T12:50:50;16.70;99.90
2973;DHT22;1496;51.404;7.232;2023-08-01T12:53:16;16.80;99.90
2973;DHT22;1496;51.404;7.232;2023-08-01T12:55:46;16.90;99.90
2973;DHT22;1496;51.404;7.232;2023-08-01T12:58:12;16.80;99.90
2973;DHT22;1496;51.404;7.232;2023-08-01T13:00:39;16.80;99.90
2973;DHT22;1496;51.404;7.232;2023-08-01T13:03:05;16.80;99.90
2973;DHT22;1496;51.404;7.232;2023-08-01T13:05:34;17.00;99.90
2973;DHT22;1496;51.404;7.232;2023-08-01T13:07:59;17.10;99.90
2973;DHT22;1496;51.404;7.232;2023-08-01T13:10:25;17.10;99.90
2973;DHT22;1496;51.404;7.232;2023-08-01T13:12:51;17.60;99.90
2973;DHT22;1496;51.404;7.232;2023-08-01T13:15:16;17.70;99.90
2973;DHT22;1496;51.404;7.232;2023-08-01T13:17:42;17.40;99.90
2973;DHT22;1496;51.404;7.232;2023-08-01T13:20:08;17.60;99.90
2973;DHT22;1496;51.404;7.232;2023-08-01T13:22:34;17.70;99.90
2973;DHT22;1496;51.404;7.232;2023-08-01T13:24:59;18.00;99.90
2973;DHT22;1496;51.404;7.232;2023-08-01T13:27:25;18.30;99.90
2973;DHT22;1496;51.404;7.232;2023-08-01T13:29:50;18.20;99.90
2973;DHT22;1496;51.404;7.232;2023-08-01T13:32:19;18.30;99.90
2973;DHT22;1496;51.404;7.232;2023-08-01T13:34:46;18.30;99.90
2973;DHT22;1496;51.404;7.232;2023-08-01T13:37:13;18.30;99.90
2973;DHT22;1496;51.404;7.232;2023-08-01T13:39:38;18.30;99.90
2973;DHT22;1496;51.404;7.232;2023-08-01T13:42:04;18.50;99.90
2973;DHT22;1496;51.404;7.232;2023-08-01T13:44:30;18.60;99.90
2973;DHT22;1496;51.404;7.232;2023-08-01T13:46:55;18.60;99.90
2973;DHT22;1496;51.404;7.232;2023-08-01T13:49:21;18.30;1.00
2973;DHT22;1496;51.404;7.232;2023-08-01T13:51:46;18.00;1.00
2973;DHT22;1496;51.404;7.232;2023-08-01T13:54:12;17.60;1.00
2973;DHT22;1496;51.404;7.232;2023-08-01T13:56:38;17.40;95.80
2973;DHT22;1496;51.404;7.232;2023-08-01T13:59:04;17.10;99.90
2973;DHT22;1496;51.404;7.232;2023-08-01T14:01:29;17.00;99.90
2973;DHT22;1496;51.404;7.232;2023-08-01T14:03:55;16.80;99.90
2973;DHT22;1496;51.404;7.232;2023-08-01T14:06:20;16.60;99.90
2973;DHT22;1496;51.404;7.232;2023-08-01T14:08:46;16.50;99.90
2973;DHT22;1496;51.404;7.232;2023-08-01T14:11:12;16.50;99.90
2973;DHT22;1496;51.404;7.232;2023-08-01T14:13:37;16.60;99.90
2973;DHT22;1496;51.404;7.232;2023-08-01T14:16:03;16.90;99.90
2973;DHT22;1496;51.404;7.232;2023-08-01T14:18:29;17.30;99.90
2973;DHT22;1496;51.404;7.232;2023-08-01T14:20:55;17.60;99.90
2973;DHT22;1496;51.404;7.232;2023-08-01T14:23:21;17.90;99.90
2973;DHT22;1496;51.404;7.232;2023-08-01T14:25:47;18.10;99.90
2973;DHT22;1496;51.404;7.232;2023-08-01T14:28:15;18.20;99.90
2973;DHT22;1496;51.404;7.232;2023-08-01T14:30:41;18.40;99.90
2973;DHT22;1496;51.404;7.232;2023-08-01T14:33:09;18.60;99.90
2973;DHT22;1496;51.404;7.232;2023-08-01T14:35:36;18.70;99.90
2973;DHT22;1496;51.404;7.232;2023-08-01T14:38:02;18.80;99.90
2973;DHT22;1496;51.404;7.232;2023-08-01T14:40:29;18.90;99.90
2973;DHT22;1496;51.404;7.232;2023-08-01T14:42:54;18.90;1.00
2973;DHT22;1496;51.404;7.232;2023-08-01T14:45:20;19.00;99.90
2973;DHT22;1496;51.404;7.232;2023-08-01T14:47:46;19.00;99.90
2973;DHT22;1496;51.404;7.232;2023-08-01T14:50:13;18.70;99.90
2973;DHT22;1496;51.404;7.232;2023-08-01T14:52:39;18.70;1.00
2973;DHT22;1496;51.404;7.232;2023-08-01T14:55:06;18.80;99.90
2973;DHT22;1496;51.404;7.232;2023-08-01T14:57:32;18.90;1.00
2973;DHT22;1496;51.404;7.232;2023-08-01T14:59:58;19.10;99.90
2973;DHT22;1496;51.404;7.232;2023-08-01T15:02:23;18.90;99.90
2973;DHT22;1496;51.404;7.232;2023-08-01T15:04:53;18.80;99.90
2973;DHT22;1496;51.404;7.232;2023-08-01T15:07:21;18.60;99.90
2973;DHT22;1496;51.404;7.232;2023-08-01T15:09:47;18.50;99.90
2973;DHT22;1496;51.404;7.232;2023-08-01T15:12:14;18.40;99.90
2973;DHT22;1496;51.404;7.232;2023-08-01T15:14:39;18.20;99.90
2973;DHT22;1496;51.404;7.232;2023-08-01T15:17:05;18.10;99.90
2973;DHT22;1496;51.404;7.232;2023-08-01T15:19:34;18.00;99.90
2973;DHT22;1496;51.404;7.232;2023-08-01T15:22:00;17.80;99.90
2973;DHT22;1496;51.404;7.232;2023-08-01T15:24:26;17.50;99.90
2973;DHT22;1496;51.404;7.232;2023-08-01T15:26:52;17.20;99.90
2973;DHT22;1496;51.404;7.232;2023-08-01T15:29:17;17.10;99.90
2973;DHT22;1496;51.404;7.232;2023-08-01T15:31:43;16.80;99.90
2973;DHT22;1496;51.404;7.232;2023-08-01T15:34:08;16.80;99.90
2973;DHT22;1496;51.404;7.232;2023-08-01T15:36:34;16.90;99.90
2973;DHT22;1496;51.404;7.232;2023-08-01T15:39:01;16.80;1.00
2973;DHT22;1496;51.404;7.232;2023-08-01T15:41:27;16.80;1.00
2973;DHT22;1496;51.404;7.232;2023-08-01T15:43:53;16.80;1.00
2973;DHT22;1496;51.404;7.232;2023-08-01T15:46:19;16.90;1.00
2973;DHT22;1496;51.404;7.232;2023-08-01T15:48:44;17.20;99.90
2973;DHT22;1496;51.404;7.232;2023-08-01T15:51:10;17.40;1.00
2973;DHT22;1496;51.404;7.232;2023-08-01T15:53:37;17.40;1.00
2973;DHT22;1496;51.404;7.232;2023-08-01T15:56:07;17.20;99.90
2973;DHT22;1496;51.404;7.232;2023-08-01T15:58:33;17.20;99.90
2973;DHT22;1496;51.404;7.232;2023-08-01T16:01:00;17.10;99.90